Terminal Aerodrome Forecast
Issued by NWS

Home | Current Version | Previous Version | Text Only | Print | Product List | Glossary On
Versions: 1 2 3 4 5 6 7 8 9 10 11 12 13 14 15 16
661
FTUS43 KFGF 061120
TAFTVF
TAF
KTVF 061120Z 0612/0712 19007KT P6SM BKN110
     FM061800 19012KT P6SM BKN070
     FM062300 22020G30KT P6SM BKN100
     FM070600 26018G25KT P6SM OVC025=

USA.gov is the U.S. government's official web portal to all federal, state and local government web resources and services.